sensor_id;sensor_type;location;lat;lon;timestamp;temperature;humidity
45233;DHT22;30969;51.052;17.056;2023-08-20T00:00:48;28.20;50.40
45233;DHT22;30969;51.052;17.056;2023-08-20T00:06:11;28.10;50.50
45233;DHT22;30969;51.052;17.056;2023-08-20T00:11:15;28.00;50.60
45233;DHT22;30969;51.052;17.056;2023-08-20T00:16:21;28.00;50.60
45233;DHT22;30969;51.052;17.056;2023-08-20T00:21:24;28.00;50.70
45233;DHT22;30969;51.052;17.056;2023-08-20T00:26:29;27.90;50.90
45233;DHT22;30969;51.052;17.056;2023-08-20T00:31:33;27.80;52.00
45233;DHT22;30969;51.052;17.056;2023-08-20T00:36:37;27.70;51.10
45233;DHT22;30969;51.052;17.056;2023-08-20T00:41:40;27.60;51.10
45233;DHT22;30969;51.052;17.056;2023-08-20T00:46:45;27.60;51.30
45233;DHT22;30969;51.052;17.056;2023-08-20T00:51:48;27.50;51.50
45233;DHT22;30969;51.052;17.056;2023-08-20T00:56:52;27.40;51.70
45233;DHT22;30969;51.052;17.056;2023-08-20T01:01:57;27.30;52.00
45233;DHT22;30969;51.052;17.056;2023-08-20T01:07:02;27.30;51.90
45233;DHT22;30969;51.052;17.056;2023-08-20T01:12:06;27.20;52.10
45233;DHT22;30969;51.052;17.056;2023-08-20T01:17:11;27.10;52.30
45233;DHT22;30969;51.052;17.056;2023-08-20T01:22:24;27.00;52.40
45233;DHT22;30969;51.052;17.056;2023-08-20T01:27:38;27.00;52.50
45233;DHT22;30969;51.052;17.056;2023-08-20T01:32:48;26.90;52.60
45233;DHT22;30969;51.052;17.056;2023-08-20T01:37:52;26.90;52.50
45233;DHT22;30969;51.052;17.056;2023-08-20T01:42:55;26.80;52.50
45233;DHT22;30969;51.052;17.056;2023-08-20T01:48:01;26.80;52.60
45233;DHT22;30969;51.052;17.056;2023-08-20T01:53:05;26.80;52.90
45233;DHT22;30969;51.052;17.056;2023-08-20T01:58:09;26.80;52.80
45233;DHT22;30969;51.052;17.056;2023-08-20T02:03:13;26.80;52.70
45233;DHT22;30969;51.052;17.056;2023-08-20T02:08:17;26.70;52.80
45233;DHT22;30969;51.052;17.056;2023-08-20T02:13:20;26.70;52.80
45233;DHT22;30969;51.052;17.056;2023-08-20T02:18:25;26.60;52.80
45233;DHT22;30969;51.052;17.056;2023-08-20T02:23:28;26.60;52.90
45233;DHT22;30969;51.052;17.056;2023-08-20T02:28:32;26.60;53.20
45233;DHT22;30969;51.052;17.056;2023-08-20T02:33:36;26.60;54.20
45233;DHT22;30969;51.052;17.056;2023-08-20T02:38:40;26.60;54.60
45233;DHT22;30969;51.052;17.056;2023-08-20T02:43:43;26.50;54.30
45233;DHT22;30969;51.052;17.056;2023-08-20T02:48:48;26.40;54.50
45233;DHT22;30969;51.052;17.056;2023-08-20T02:53:51;26.50;54.40
45233;DHT22;30969;51.052;17.056;2023-08-20T02:58:54;26.50;54.40
45233;DHT22;30969;51.052;17.056;2023-08-20T03:03:59;26.40;54.00
45233;DHT22;30969;51.052;17.056;2023-08-20T03:09:03;26.40;54.00
45233;DHT22;30969;51.052;17.056;2023-08-20T03:14:07;26.40;53.90
45233;DHT22;30969;51.052;17.056;2023-08-20T03:19:14;26.30;53.80
45233;DHT22;30969;51.052;17.056;2023-08-20T03:24:17;26.20;53.80
45233;DHT22;30969;51.052;17.056;2023-08-20T03:29:21;26.20;53.70
45233;DHT22;30969;51.052;17.056;2023-08-20T03:34:25;26.10;53.70
45233;DHT22;30969;51.052;17.056;2023-08-20T03:39:29;26.10;53.80
45233;DHT22;30969;51.052;17.056;2023-08-20T03:44:33;26.10;53.90
45233;DHT22;30969;51.052;17.056;2023-08-20T03:49:37;26.00;53.90
45233;DHT22;30969;51.052;17.056;2023-08-20T03:54:41;26.00;54.00
45233;DHT22;30969;51.052;17.056;2023-08-20T03:59:44;25.90;54.00
45233;DHT22;30969;51.052;17.056;2023-08-20T04:04:49;25.90;54.10
45233;DHT22;30969;51.052;17.056;2023-08-20T04:09:53;25.80;54.00
45233;DHT22;30969;51.052;17.056;2023-08-20T04:14:56;25.70;54.10
45233;DHT22;30969;51.052;17.056;2023-08-20T04:20:01;25.70;54.30
45233;DHT22;30969;51.052;17.056;2023-08-20T04:25:09;25.70;54.40
45233;DHT22;30969;51.052;17.056;2023-08-20T04:30:13;25.70;54.50
45233;DHT22;30969;51.052;17.056;2023-08-20T04:35:18;26.50;55.30
45233;DHT22;30969;51.052;17.056;2023-08-20T04:40:21;25.50;54.70
45233;DHT22;30969;51.052;17.056;2023-08-20T04:45:25;25.50;54.90
45233;DHT22;30969;51.052;17.056;2023-08-20T04:50:29;25.50;55.10
45233;DHT22;30969;51.052;17.056;2023-08-20T04:55:33;25.40;55.30
45233;DHT22;30969;51.052;17.056;2023-08-20T05:00:36;25.40;55.70
45233;DHT22;30969;51.052;17.056;2023-08-20T05:05:41;25.40;55.50
45233;DHT22;30969;51.052;17.056;2023-08-20T05:10:44;25.30;55.60
45233;DHT22;30969;51.052;17.056;2023-08-20T05:15:48;25.40;55.80
45233;DHT22;30969;51.052;17.056;2023-08-20T05:20:52;25.40;56.00
45233;DHT22;30969;51.052;17.056;2023-08-20T05:25:56;25.40;56.10
45233;DHT22;30969;51.052;17.056;2023-08-20T05:30:59;25.30;56.30
45233;DHT22;30969;51.052;17.056;2023-08-20T05:36:04;25.40;56.50
45233;DHT22;30969;51.052;17.056;2023-08-20T05:41:08;25.30;56.70
45233;DHT22;30969;51.052;17.056;2023-08-20T05:46:11;25.40;57.00
45233;DHT22;30969;51.052;17.056;2023-08-20T05:51:16;25.40;57.10
45233;DHT22;30969;51.052;17.056;2023-08-20T05:56:19;25.40;57.30
45233;DHT22;30969;51.052;17.056;2023-08-20T06:01:22;25.50;57.50
45233;DHT22;30969;51.052;17.056;2023-08-20T06:06:27;25.50;57.70
45233;DHT22;30969;51.052;17.056;2023-08-20T06:11:31;25.50;57.80
45233;DHT22;30969;51.052;17.056;2023-08-20T06:16:34;25.60;57.90
45233;DHT22;30969;51.052;17.056;2023-08-20T06:21:39;25.60;57.80
45233;DHT22;30969;51.052;17.056;2023-08-20T06:26:42;25.60;57.90
45233;DHT22;30969;51.052;17.056;2023-08-20T06:31:46;25.70;57.90
45233;DHT22;30969;51.052;17.056;2023-08-20T06:36:51;25.70;57.70
45233;DHT22;30969;51.052;17.056;2023-08-20T06:41:55;25.70;57.50
45233;DHT22;30969;51.052;17.056;2023-08-20T06:46:58;25.80;57.60
45233;DHT22;30969;51.052;17.056;2023-08-20T06:52:03;25.90;57.60
45233;DHT22;30969;51.052;17.056;2023-08-20T06:57:06;25.90;57.50
45233;DHT22;30969;51.052;17.056;2023-08-20T07:02:10;25.90;57.40
45233;DHT22;30969;51.052;17.056;2023-08-20T07:07:14;25.90;57.40
45233;DHT22;30969;51.052;17.056;2023-08-20T07:12:18;26.00;57.70
45233;DHT22;30969;51.052;17.056;2023-08-20T07:17:21;26.10;58.40
45233;DHT22;30969;51.052;17.056;2023-08-20T07:22:26;26.10;58.60
45233;DHT22;30969;51.052;17.056;2023-08-20T07:27:30;26.20;58.60
45233;DHT22;30969;51.052;17.056;2023-08-20T07:32:35;26.20;58.60
45233;DHT22;30969;51.052;17.056;2023-08-20T07:37:40;26.30;58.70
45233;DHT22;30969;51.052;17.056;2023-08-20T07:42:47;26.30;58.70
45233;DHT22;30969;51.052;17.056;2023-08-20T07:47:50;26.40;58.70
45233;DHT22;30969;51.052;17.056;2023-08-20T07:52:55;26.50;58.70
45233;DHT22;30969;51.052;17.056;2023-08-20T07:57:58;26.50;58.90
45233;DHT22;30969;51.052;17.056;2023-08-20T08:03:02;26.60;59.50
45233;DHT22;30969;51.052;17.056;2023-08-20T08:08:07;26.70;60.10
45233;DHT22;30969;51.052;17.056;2023-08-20T08:13:10;26.80;60.50
45233;DHT22;30969;51.052;17.056;2023-08-20T08:18:14;27.00;60.90
45233;DHT22;30969;51.052;17.056;2023-08-20T08:23:18;27.10;62.10
45233;DHT22;30969;51.052;17.056;2023-08-20T08:28:22;27.30;61.20
45233;DHT22;30969;51.052;17.056;2023-08-20T08:33:25;27.50;61.10
45233;DHT22;30969;51.052;17.056;2023-08-20T08:38:30;27.70;60.80
45233;DHT22;30969;51.052;17.056;2023-08-20T08:43:34;27.90;60.40
45233;DHT22;30969;51.052;17.056;2023-08-20T08:48:37;28.10;60.00
45233;DHT22;30969;51.052;17.056;2023-08-20T08:53:43;28.20;59.30
45233;DHT22;30969;51.052;17.056;2023-08-20T08:58:47;28.40;58.50
45233;DHT22;30969;51.052;17.056;2023-08-20T09:03:50;28.50;57.70
45233;DHT22;30969;51.052;17.056;2023-08-20T09:08:57;28.60;56.80
45233;DHT22;30969;51.052;17.056;2023-08-20T09:14:07;28.70;56.30
45233;DHT22;30969;51.052;17.056;2023-08-20T09:19:10;28.80;55.70
45233;DHT22;30969;51.052;17.056;2023-08-20T09:24:15;28.80;55.10
45233;DHT22;30969;51.052;17.056;2023-08-20T09:29:18;28.80;54.60
45233;DHT22;30969;51.052;17.056;2023-08-20T09:34:21;28.90;54.30
45233;DHT22;30969;51.052;17.056;2023-08-20T09:39:26;28.90;53.90
45233;DHT22;30969;51.052;17.056;2023-08-20T09:44:32;29.00;53.80
45233;DHT22;30969;51.052;17.056;2023-08-20T09:49:39;29.00;53.60
45233;DHT22;30969;51.052;17.056;2023-08-20T09:54:47;29.00;53.60
45233;DHT22;30969;51.052;17.056;2023-08-20T09:59:53;29.00;53.10
45233;DHT22;30969;51.052;17.056;2023-08-20T10:04:56;29.00;52.80
45233;DHT22;30969;51.052;17.056;2023-08-20T10:10:05;29.10;52.90
45233;DHT22;30969;51.052;17.056;2023-08-20T10:15:10;29.10;52.40
45233;DHT22;30969;51.052;17.056;2023-08-20T10:20:14;29.00;51.80
45233;DHT22;30969;51.052;17.056;2023-08-20T10:25:25;29.10;51.70
45233;DHT22;30969;51.052;17.056;2023-08-20T10:30:28;29.10;51.80
45233;DHT22;30969;51.052;17.056;2023-08-20T10:35:46;29.10;51.80
45233;DHT22;30969;51.052;17.056;2023-08-20T10:40:54;29.10;51.90
45233;DHT22;30969;51.052;17.056;2023-08-20T10:46:02;29.10;52.20
45233;DHT22;30969;51.052;17.056;2023-08-20T10:51:10;29.10;52.40
45233;DHT22;30969;51.052;17.056;2023-08-20T10:56:16;29.10;52.40
45233;DHT22;30969;51.052;17.056;2023-08-20T11:01:20;29.10;52.30
45233;DHT22;30969;51.052;17.056;2023-08-20T11:06:24;29.20;52.20
45233;DHT22;30969;51.052;17.056;2023-08-20T11:11:29;29.20;52.20
45233;DHT22;30969;51.052;17.056;2023-08-20T11:16:33;29.20;52.10
45233;DHT22;30969;51.052;17.056;2023-08-20T11:21:37;29.30;51.90
45233;DHT22;30969;51.052;17.056;2023-08-20T11:26:43;29.40;51.70
45233;DHT22;30969;51.052;17.056;2023-08-20T11:31:46;29.40;51.30
45233;DHT22;30969;51.052;17.056;2023-08-20T11:36:50;29.40;51.20
45233;DHT22;30969;51.052;17.056;2023-08-20T11:41:55;29.50;51.30
45233;DHT22;30969;51.052;17.056;2023-08-20T11:46:58;29.50;51.00
45233;DHT22;30969;51.052;17.056;2023-08-20T11:52:01;29.60;51.00
45233;DHT22;30969;51.052;17.056;2023-08-20T11:57:06;29.70;51.30
45233;DHT22;30969;51.052;17.056;2023-08-20T12:02:10;29.90;51.60
45233;DHT22;30969;51.052;17.056;2023-08-20T12:07:14;30.10;51.40
45233;DHT22;30969;51.052;17.056;2023-08-20T12:12:18;30.30;51.30
45233;DHT22;30969;51.052;17.056;2023-08-20T12:17:22;30.50;51.10
45233;DHT22;30969;51.052;17.056;2023-08-20T12:22:25;30.70;50.90
45233;DHT22;30969;51.052;17.056;2023-08-20T12:27:30;31.00;50.40
45233;DHT22;30969;51.052;17.056;2023-08-20T12:32:33;31.00;50.00
45233;DHT22;30969;51.052;17.056;2023-08-20T12:37:37;31.50;49.50
45233;DHT22;30969;51.052;17.056;2023-08-20T12:42:41;31.70;48.70
45233;DHT22;30969;51.052;17.056;2023-08-20T12:47:45;32.10;47.30
45233;DHT22;30969;51.052;17.056;2023-08-20T12:52:49;32.20;46.20
45233;DHT22;30969;51.052;17.056;2023-08-20T12:57:55;32.40;45.80
45233;DHT22;30969;51.052;17.056;2023-08-20T13:02:59;32.60;45.40
45233;DHT22;30969;51.052;17.056;2023-08-20T13:08:03;32.80;44.40
45233;DHT22;30969;51.052;17.056;2023-08-20T13:13:09;33.10;43.10
45233;DHT22;30969;51.052;17.056;2023-08-20T13:18:13;33.20;42.90
45233;DHT22;30969;51.052;17.056;2023-08-20T13:23:17;34.10;42.80
45233;DHT22;30969;51.052;17.056;2023-08-20T13:28:22;33.60;42.60
45233;DHT22;30969;51.052;17.056;2023-08-20T13:33:25;33.80;42.40
45233;DHT22;30969;51.052;17.056;2023-08-20T13:38:28;33.90;41.60
45233;DHT22;30969;51.052;17.056;2023-08-20T13:43:33;34.00;40.80
45233;DHT22;30969;51.052;17.056;2023-08-20T13:48:37;34.20;40.20
45233;DHT22;30969;51.052;17.056;2023-08-20T13:53:40;34.30;39.80
45233;DHT22;30969;51.052;17.056;2023-08-20T13:58:45;34.50;39.60
45233;DHT22;30969;51.052;17.056;2023-08-20T14:03:48;34.50;38.20
45233;DHT22;30969;51.052;17.056;2023-08-20T14:08:52;34.70;38.30
45233;DHT22;30969;51.052;17.056;2023-08-20T14:13:56;34.90;39.10
45233;DHT22;30969;51.052;17.056;2023-08-20T14:19:00;35.00;37.50
45233;DHT22;30969;51.052;17.056;2023-08-20T14:24:03;35.20;37.20
45233;DHT22;30969;51.052;17.056;2023-08-20T14:29:08;35.30;36.70
45233;DHT22;30969;51.052;17.056;2023-08-20T14:34:11;35.40;37.00
45233;DHT22;30969;51.052;17.056;2023-08-20T14:39:15;35.50;37.30
45233;DHT22;30969;51.052;17.056;2023-08-20T14:44:20;35.60;37.00
45233;DHT22;30969;51.052;17.056;2023-08-20T14:49:23;35.70;36.40
45233;DHT22;30969;51.052;17.056;2023-08-20T14:54:26;35.90;36.00
45233;DHT22;30969;51.052;17.056;2023-08-20T14:59:31;35.90;35.20
45233;DHT22;30969;51.052;17.056;2023-08-20T15:04:34;36.10;33.30
45233;DHT22;30969;51.052;17.056;2023-08-20T15:09:38;36.10;32.90
45233;DHT22;30969;51.052;17.056;2023-08-20T15:14:42;36.10;32.10
45233;DHT22;30969;51.052;17.056;2023-08-20T15:19:46;36.10;31.60
45233;DHT22;30969;51.052;17.056;2023-08-20T15:24:49;36.20;31.30
45233;DHT22;30969;51.052;17.056;2023-08-20T15:29:54;36.10;31.50
45233;DHT22;30969;51.052;17.056;2023-08-20T15:34:57;36.00;31.50
45233;DHT22;30969;51.052;17.056;2023-08-20T15:40:01;36.00;31.50
45233;DHT22;30969;51.052;17.056;2023-08-20T15:45:09;36.00;31.70
45233;DHT22;30969;51.052;17.056;2023-08-20T15:50:12;35.90;31.70
45233;DHT22;30969;51.052;17.056;2023-08-20T15:55:16;36.00;31.70
45233;DHT22;30969;51.052;17.056;2023-08-20T16:00:21;36.00;31.90
45233;DHT22;30969;51.052;17.056;2023-08-20T16:05:25;36.10;32.40
45233;DHT22;30969;51.052;17.056;2023-08-20T16:10:28;36.20;32.90
45233;DHT22;30969;51.052;17.056;2023-08-20T16:15:34;36.20;33.10
45233;DHT22;30969;51.052;17.056;2023-08-20T16:20:38;36.30;33.20
45233;DHT22;30969;51.052;17.056;2023-08-20T16:25:41;36.40;33.40
45233;DHT22;30969;51.052;17.056;2023-08-20T16:30:46;36.50;33.50
45233;DHT22;30969;51.052;17.056;2023-08-20T16:35:50;36.60;33.60
45233;DHT22;30969;51.052;17.056;2023-08-20T16:40:53;36.70;33.50
45233;DHT22;30969;51.052;17.056;2023-08-20T16:45:58;36.70;33.40
45233;DHT22;30969;51.052;17.056;2023-08-20T16:51:03;36.80;33.40
45233;DHT22;30969;51.052;17.056;2023-08-20T16:56:07;36.90;33.40
45233;DHT22;30969;51.052;17.056;2023-08-20T17:01:11;36.90;33.30
45233;DHT22;30969;51.052;17.056;2023-08-20T17:06:15;36.90;33.10
45233;DHT22;30969;51.052;17.056;2023-08-20T17:11:18;36.90;32.90
45233;DHT22;30969;51.052;17.056;2023-08-20T17:16:23;36.90;32.60
45233;DHT22;30969;51.052;17.056;2023-08-20T17:21:27;36.90;32.20
45233;DHT22;30969;51.052;17.056;2023-08-20T17:26:31;36.80;32.00
45233;DHT22;30969;51.052;17.056;2023-08-20T17:31:35;36.70;31.30
45233;DHT22;30969;51.052;17.056;2023-08-20T17:36:39;36.60;32.20
45233;DHT22;30969;51.052;17.056;2023-08-20T17:41:42;36.50;32.30
45233;DHT22;30969;51.052;17.056;2023-08-20T17:46:48;36.40;32.60
45233;DHT22;30969;51.052;17.056;2023-08-20T17:51:52;36.30;33.00
45233;DHT22;30969;51.052;17.056;2023-08-20T17:56:55;36.20;33.20
45233;DHT22;30969;51.052;17.056;2023-08-20T18:02:00;36.00;34.30
45233;DHT22;30969;51.052;17.056;2023-08-20T18:07:04;35.90;34.90
45233;DHT22;30969;51.052;17.056;2023-08-20T18:12:07;35.80;35.40
45233;DHT22;30969;51.052;17.056;2023-08-20T18:17:12;35.70;36.10
45233;DHT22;30969;51.052;17.056;2023-08-20T18:22:19;35.60;36.50
45233;DHT22;30969;51.052;17.056;2023-08-20T18:27:24;35.50;36.70
45233;DHT22;30969;51.052;17.056;2023-08-20T18:32:31;35.40;36.90
45233;DHT22;30969;51.052;17.056;2023-08-20T18:37:34;35.20;36.50
45233;DHT22;30969;51.052;17.056;2023-08-20T18:42:37;35.10;36.50
45233;DHT22;30969;51.052;17.056;2023-08-20T18:47:43;35.00;37.00
45233;DHT22;30969;51.052;17.056;2023-08-20T18:52:46;34.80;37.10
45233;DHT22;30969;51.052;17.056;2023-08-20T18:57:50;34.70;37.40
45233;DHT22;30969;51.052;17.056;2023-08-20T19:02:54;34.60;37.80
45233;DHT22;30969;51.052;17.056;2023-08-20T19:07:58;34.50;38.10
45233;DHT22;30969;51.052;17.056;2023-08-20T19:13:01;34.30;38.60
45233;DHT22;30969;51.052;17.056;2023-08-20T19:18:07;34.20;39.00
45233;DHT22;30969;51.052;17.056;2023-08-20T19:23:11;34.10;39.30
45233;DHT22;30969;51.052;17.056;2023-08-20T19:28:14;34.00;39.70
45233;DHT22;30969;51.052;17.056;2023-08-20T19:33:19;33.90;40.00
45233;DHT22;30969;51.052;17.056;2023-08-20T19:38:24;33.80;40.10
45233;DHT22;30969;51.052;17.056;2023-08-20T19:43:27;33.70;40.20
45233;DHT22;30969;51.052;17.056;2023-08-20T19:48:32;33.60;41.40
45233;DHT22;30969;51.052;17.056;2023-08-20T19:53:35;33.50;40.50
45233;DHT22;30969;51.052;17.056;2023-08-20T19:58:42;33.40;40.60
45233;DHT22;30969;51.052;17.056;2023-08-20T20:03:47;33.40;41.30
45233;DHT22;30969;51.052;17.056;2023-08-20T20:08:51;33.30;41.60
45233;DHT22;30969;51.052;17.056;2023-08-20T20:13:54;33.20;41.70
45233;DHT22;30969;51.052;17.056;2023-08-20T20:18:59;33.10;41.60
45233;DHT22;30969;51.052;17.056;2023-08-20T20:24:03;33.00;41.40
45233;DHT22;30969;51.052;17.056;2023-08-20T20:29:06;32.90;41.00
45233;DHT22;30969;51.052;17.056;2023-08-20T20:34:11;32.80;40.90
45233;DHT22;30969;51.052;17.056;2023-08-20T20:39:15;32.60;40.80
45233;DHT22;30969;51.052;17.056;2023-08-20T20:44:19;32.40;40.80
45233;DHT22;30969;51.052;17.056;2023-08-20T20:49:23;32.30;40.90
45233;DHT22;30969;51.052;17.056;2023-08-20T20:54:27;32.20;41.00
45233;DHT22;30969;51.052;17.056;2023-08-20T20:59:31;32.00;41.20
45233;DHT22;30969;51.052;17.056;2023-08-20T21:04:35;31.90;41.40
45233;DHT22;30969;51.052;17.056;2023-08-20T21:09:39;31.80;41.40
45233;DHT22;30969;51.052;17.056;2023-08-20T21:14:42;31.70;41.40
45233;DHT22;30969;51.052;17.056;2023-08-20T21:19:47;31.60;41.60
45233;DHT22;30969;51.052;17.056;2023-08-20T21:24:50;31.50;41.70
45233;DHT22;30969;51.052;17.056;2023-08-20T21:29:54;31.50;41.90
45233;DHT22;30969;51.052;17.056;2023-08-20T21:34:59;31.40;42.00
45233;DHT22;30969;51.052;17.056;2023-08-20T21:40:02;31.30;42.20
45233;DHT22;30969;51.052;17.056;2023-08-20T21:45:06;31.20;42.30
45233;DHT22;30969;51.052;17.056;2023-08-20T21:50:11;31.10;42.50
45233;DHT22;30969;51.052;17.056;2023-08-20T21:55:16;31.00;43.40
45233;DHT22;30969;51.052;17.056;2023-08-20T22:00:20;30.90;43.10
45233;DHT22;30969;51.052;17.056;2023-08-20T22:05:24;30.90;43.10
45233;DHT22;30969;51.052;17.056;2023-08-20T22:10:28;30.80;43.00
45233;DHT22;30969;51.052;17.056;2023-08-20T22:15:32;30.70;43.20
45233;DHT22;30969;51.052;17.056;2023-08-20T22:20:38;30.60;44.40
45233;DHT22;30969;51.052;17.056;2023-08-20T22:25:42;30.50;45.50
45233;DHT22;30969;51.052;17.056;2023-08-20T22:30:45;30.50;46.10
45233;DHT22;30969;51.052;17.056;2023-08-20T22:35:50;30.50;46.70
45233;DHT22;30969;51.052;17.056;2023-08-20T22:40:54;30.60;47.10
45233;DHT22;30969;51.052;17.056;2023-08-20T22:45:57;30.70;47.10
45233;DHT22;30969;51.052;17.056;2023-08-20T22:51:03;30.70;47.20
45233;DHT22;30969;51.052;17.056;2023-08-20T22:56:06;30.70;47.50
45233;DHT22;30969;51.052;17.056;2023-08-20T23:01:09;30.80;47.70
45233;DHT22;30969;51.052;17.056;2023-08-20T23:06:14;30.70;47.30
45233;DHT22;30969;51.052;17.056;2023-08-20T23:11:17;30.70;47.20
45233;DHT22;30969;51.052;17.056;2023-08-20T23:16:21;30.80;47.50
45233;DHT22;30969;51.052;17.056;2023-08-20T23:21:26;30.70;47.50
45233;DHT22;30969;51.052;17.056;2023-08-20T23:26:29;30.70;47.70
45233;DHT22;30969;51.052;17.056;2023-08-20T23:31:32;30.70;47.90
45233;DHT22;30969;51.052;17.056;2023-08-20T23:36:37;30.70;48.00
45233;DHT22;30969;51.052;17.056;2023-08-20T23:41:41;30.60;48.10
45233;DHT22;30969;51.052;17.056;2023-08-20T23:46:44;30.60;48.30
45233;DHT22;30969;51.052;17.056;2023-08-20T23:51:51;30.60;48.40
45233;DHT22;30969;51.052;17.056;2023-08-20T23:56:57;30.60;48.40
